Brightwaters, New York
Current Conditions -  °F | °C
As of 7:53 PM on Monday 20 Oct 2014 (Local Time) from KFRG Reporting Station
Clear Clear  
Wind Chill: 56°   Ceiling: Unl
Heat Index: 56°   Visibility: 10mi
Dew Point: 42°   Wind: 6mph
Humidity: 60%   Direction: 200°SSW
Pressure: 29.99"   Gusts: NA
Location:  40.72°N, 73.27°W
Report Text: KFRG 202353Z 20005KT 10SM CLR 13/06 A2999 RMK AO2 SLP155 T01330056 10150 20133 55002
Loading
Personal Weather Stations






























Interactive Weather Map
Tropical Storm Tracking
New forecast layout! Learn more

10-Day Weather Forecast

Advertisements
Track Severe Weather on mobile